TimeCST,TemperatureF,Dew PointF,Humidity,Sea Level PressureIn,VisibilityMPH,Wind Direction,Wind SpeedMPH,Gust SpeedMPH,PrecipitationIn,Events,Conditions,WindDirDegrees,DateUTC
12:15 AM,30.2,26.2,85,29.89,10.0,SW,4.6,-,N/A,,Clear,220,2013-02-17 06:15:00
12:35 AM,30.2,25.7,83,29.88,10.0,SSW,5.8,-,N/A,,Clear,200,2013-02-17 06:35:00
12:55 AM,27.9,24.3,86,29.87,10.0,South,6.9,-,N/A,,Clear,180,2013-02-17 06:55:00
1:15 AM,27.7,24.1,86,29.87,10.0,South,6.9,-,N/A,,Clear,180,2013-02-17 07:15:00
1:35 AM,27.9,24.4,87,29.86,10.0,South,9.2,-,N/A,,Clear,180,2013-02-17 07:35:00
1:55 AM,27.7,23.7,85,29.85,10.0,South,5.8,-,N/A,,Clear,180,2013-02-17 07:55:00
2:15 AM,27.9,24.1,86,29.84,10.0,South,6.9,-,N/A,,Clear,170,2013-02-17 08:15:00
2:35 AM,28.6,24.4,84,29.85,10.0,South,8.1,-,N/A,,Clear,190,2013-02-17 08:35:00
2:55 AM,26.6,23.0,86,29.83,10.0,SSW,5.8,-,N/A,,Clear,200,2013-02-17 08:55:00
3:15 AM,26.2,22.8,87,29.82,10.0,South,6.9,-,N/A,,Clear,180,2013-02-17 09:15:00
3:35 AM,26.8,23.4,87,29.81,10.0,South,8.1,-,N/A,,Clear,170,2013-02-17 09:35:00
3:55 AM,29.1,25.2,85,29.80,10.0,South,8.1,-,N/A,,Clear,170,2013-02-17 09:55:00
4:15 AM,28.9,24.6,84,29.78,10.0,South,8.1,-,N/A,,Clear,170,2013-02-17 10:15:00
4:35 AM,28.0,24.3,86,29.78,10.0,SSW,5.8,-,N/A,,Clear,210,2013-02-17 10:35:00
4:55 AM,29.1,25.5,86,29.78,10.0,SSW,9.2,-,N/A,,Clear,200,2013-02-17 10:55:00
5:15 AM,29.1,25.2,85,29.77,10.0,SSW,5.8,-,N/A,,Clear,210,2013-02-17 11:15:00
5:35 AM,27.5,23.9,86,29.76,10.0,South,5.8,-,N/A,,Clear,180,2013-02-17 11:35:00
5:55 AM,27.9,24.3,86,29.76,10.0,SSW,4.6,-,N/A,,Clear,200,2013-02-17 11:55:00
6:15 AM,28.4,24.1,84,29.75,10.0,SSW,6.9,-,N/A,,Clear,200,2013-02-17 12:15:00
6:35 AM,27.9,23.2,83,29.74,10.0,South,6.9,-,N/A,,Clear,180,2013-02-17 12:35:00
6:55 AM,26.8,23.0,86,29.73,10.0,South,6.9,-,N/A,,Clear,190,2013-02-17 12:55:00
7:15 AM,27.5,23.4,84,29.72,10.0,South,6.9,-,N/A,,Clear,190,2013-02-17 13:15:00
7:35 AM,29.5,23.9,80,29.71,10.0,SSW,5.8,-,N/A,,Clear,210,2013-02-17 13:35:00
7:55 AM,29.3,23.7,80,29.71,10.0,SSW,6.9,-,N/A,,Clear,210,2013-02-17 13:55:00
8:15 AM,31.5,24.6,76,29.69,10.0,SSW,6.9,-,N/A,,Clear,200,2013-02-17 14:15:00
8:35 AM,31.8,25.3,77,29.69,10.0,SSW,9.2,-,N/A,,Clear,200,2013-02-17 14:35:00
8:55 AM,33.1,25.9,75,29.68,10.0,SSW,11.5,-,N/A,,Clear,200,2013-02-17 14:55:00
9:15 AM,35.4,26.8,71,29.67,10.0,SSW,11.5,-,N/A,,Clear,210,2013-02-17 15:15:00
9:35 AM,37.4,27.9,68,29.67,10.0,SSW,8.1,-,N/A,,Clear,200,2013-02-17 15:35:00
9:55 AM,38.8,27.3,63,29.66,10.0,SW,8.1,-,N/A,,Clear,220,2013-02-17 15:55:00
10:15 AM,38.7,27.3,64,29.65,10.0,SW,11.5,-,N/A,,Clear,220,2013-02-17 16:15:00
10:35 AM,39.2,27.5,63,29.64,10.0,SW,11.5,-,N/A,,Clear,220,2013-02-17 16:35:00
10:55 AM,42.1,27.7,57,29.63,10.0,SW,13.8,-,N/A,,Clear,220,2013-02-17 16:55:00
11:15 AM,45.0,27.7,51,29.62,10.0,SW,16.1,-,N/A,,Clear,220,2013-02-17 17:15:00
11:35 AM,46.6,28.4,49,29.61,10.0,SW,16.1,-,N/A,,Clear,220,2013-02-17 17:35:00
11:55 AM,47.7,28.0,47,29.60,10.0,SW,15.0,18.4,N/A,,Clear,220,2013-02-17 17:55:00
12:15 PM,49.3,28.0,44,29.60,10.0,SW,15.0,-,N/A,,Clear,220,2013-02-17 18:15:00
12:55 PM,50.0,27.3,41,29.57,10.0,SW,10.4,-,N/A,,Clear,220,2013-02-17 18:55:00
1:15 PM,51.8,27.1,39,29.55,10.0,SW,12.7,-,N/A,,Clear,220,2013-02-17 19:15:00
1:35 PM,52.7,26.1,36,29.55,10.0,WSW,16.1,20.7,N/A,,Clear,240,2013-02-17 19:35:00
1:55 PM,53.6,23.9,32,29.53,10.0,WSW,12.7,-,N/A,,Clear,240,2013-02-17 19:55:00
2:15 PM,54.5,23.4,30,29.52,10.0,WSW,11.5,-,N/A,,Clear,240,2013-02-17 20:15:00
2:35 PM,54.3,22.3,29,29.52,10.0,SW,15.0,-,N/A,,Clear,230,2013-02-17 20:35:00
2:55 PM,54.1,21.4,28,29.51,10.0,WSW,13.8,23.0,N/A,,Clear,240,2013-02-17 20:55:00
3:15 PM,53.6,21.6,29,29.51,10.0,WSW,13.8,20.7,N/A,,Clear,240,2013-02-17 21:15:00
3:35 PM,52.7,22.5,31,29.50,10.0,SW,13.8,-,N/A,,Clear,230,2013-02-17 21:35:00
3:55 PM,52.7,22.5,31,29.50,10.0,SW,13.8,-,N/A,,Clear,230,2013-02-17 21:55:00
4:15 PM,51.8,23.4,33,29.50,10.0,SW,13.8,-,N/A,,Clear,230,2013-02-17 22:15:00
4:35 PM,50.9,24.6,36,29.50,10.0,SW,11.5,-,N/A,,Clear,230,2013-02-17 22:35:00
4:55 PM,50.2,24.6,37,29.50,10.0,SW,12.7,-,N/A,,Clear,230,2013-02-17 22:55:00
5:15 PM,49.3,24.6,38,29.50,10.0,WSW,12.7,-,N/A,,Clear,240,2013-02-17 23:15:00
5:35 PM,48.7,24.8,39,29.51,10.0,SW,11.5,-,N/A,,Clear,230,2013-02-17 23:35:00
5:55 PM,46.4,26.6,46,29.51,10.0,SW,11.5,-,N/A,,Clear,230,2013-02-17 23:55:00
6:15 PM,46.6,24.6,42,29.52,10.0,WSW,6.9,-,N/A,,Clear,250,2013-02-18 00:15:00
6:35 PM,43.0,25.5,50,29.52,10.0,WSW,6.9,-,N/A,,Clear,240,2013-02-18 00:35:00
6:55 PM,42.8,25.5,51,29.54,10.0,WSW,10.4,-,N/A,,Clear,240,2013-02-18 00:55:00
7:15 PM,44.6,24.8,46,29.55,10.0,West,10.4,-,N/A,,Clear,270,2013-02-18 01:15:00
7:35 PM,44.4,25.7,48,29.56,10.0,WNW,6.9,-,N/A,,Clear,290,2013-02-18 01:35:00
7:55 PM,43.9,26.1,50,29.57,10.0,WNW,6.9,-,N/A,,Clear,290,2013-02-18 01:55:00
8:15 PM,42.1,26.8,55,29.58,10.0,WNW,10.4,-,N/A,,Clear,290,2013-02-18 02:15:00
8:35 PM,43.3,28.6,56,29.60,10.0,NW,17.3,21.9,N/A,,Clear,320,2013-02-18 02:35:00
8:55 PM,42.8,29.1,58,29.61,10.0,NW,16.1,21.9,N/A,,Clear,320,2013-02-18 02:55:00
9:15 PM,41.9,28.9,60,29.62,10.0,NW,18.4,24.2,N/A,,Clear,320,2013-02-18 03:15:00
9:35 PM,41.2,28.9,62,29.64,10.0,NW,20.7,25.3,N/A,,Clear,320,2013-02-18 03:35:00
9:55 PM,41.0,29.1,63,29.64,10.0,NW,20.7,28.8,N/A,,Clear,320,2013-02-18 03:55:00
10:15 PM,40.5,29.1,64,29.65,10.0,NNW,17.3,27.6,N/A,,Clear,330,2013-02-18 04:15:00
10:35 PM,39.9,29.1,65,29.65,10.0,NNW,12.7,-,N/A,,Scattered Clouds,330,2013-02-18 04:35:00
10:55 PM,39.4,29.3,67,29.68,10.0,NW,11.5,-,N/A,,Mostly Cloudy,320,2013-02-18 04:55:00
11:15 PM,39.2,29.3,68,29.68,10.0,NW,9.2,-,N/A,,Overcast,310,2013-02-18 05:15:00
11:35 PM,38.8,29.3,69,29.69,10.0,NW,10.4,-,N/A,,Overcast,310,2013-02-18 05:35:00
11:55 PM,39.2,28.4,65,29.69,10.0,NW,16.1,21.9,N/A,,Overcast,320,2013-02-18 05:55:00